createdAt,value
2018-01-07T00:00:40.064Z,4.50
2018-01-07T00:03:09.628Z,5.47
2018-01-07T00:05:39.763Z,4.67
2018-01-07T00:08:10.105Z,4.20
2018-01-07T00:10:40.471Z,6.80
2018-01-07T00:13:10.178Z,7.40
2018-01-07T00:15:41.116Z,4.43
2018-01-07T00:18:10.849Z,4.10
2018-01-07T00:20:41.626Z,5.77
2018-01-07T00:23:11.813Z,4.93
2018-01-07T00:25:41.650Z,5.23
2018-01-07T00:28:11.627Z,4.90
2018-01-07T00:30:43.652Z,4.70
2018-01-07T00:33:13.454Z,5.93
2018-01-07T00:35:43.120Z,6.55
2018-01-07T00:38:13.867Z,4.20
2018-01-07T00:40:46.452Z,5.03
2018-01-07T00:43:18.933Z,8.52
2018-01-07T00:45:49.130Z,6.68
2018-01-07T00:48:19.801Z,9.75
2018-01-07T00:50:49.808Z,10.30
2018-01-07T00:53:19.604Z,9.93
2018-01-07T00:55:49.214Z,12.20
2018-01-07T00:58:18.751Z,16.75
2018-01-07T01:00:50.606Z,11.30
2018-01-07T01:03:21.441Z,18.95
2018-01-07T01:05:51.357Z,35.40
2018-01-07T01:08:21.805Z,45.30
2018-01-07T01:10:51.194Z,35.85
2018-01-07T01:13:21.175Z,30.40
2018-01-07T01:15:50.740Z,26.60
2018-01-07T01:18:20.614Z,28.08
2018-01-07T01:20:51.410Z,23.65
2018-01-07T01:23:21.732Z,18.37
2018-01-07T01:25:52.437Z,20.20
2018-01-07T01:28:21.812Z,19.02
2018-01-07T01:30:51.526Z,16.60
2018-01-07T01:33:22.100Z,17.23
2018-01-07T01:35:52.799Z,36.00
2018-01-07T01:38:23.260Z,61.83
2018-01-07T01:40:54.500Z,44.25
2018-01-07T01:43:24.756Z,36.97
2018-01-07T01:45:54.858Z,29.98
2018-01-07T01:48:25.865Z,24.87
2018-01-07T01:50:56.144Z,18.05
2018-01-07T01:53:26.839Z,17.37
2018-01-07T01:55:58.039Z,100.05
2018-01-07T01:58:28.740Z,23.25
2018-01-07T02:00:58.769Z,43.67
2018-01-07T02:03:30.140Z,56.85
2018-01-07T02:06:00.620Z,18.95
2018-01-07T02:08:31.208Z,14.95
2018-01-07T02:11:00.922Z,17.00
2018-01-07T02:13:30.960Z,18.12
2018-01-07T02:16:01.770Z,19.35
2018-01-07T02:18:32.848Z,14.95
2018-01-07T02:21:03.047Z,16.02
2018-01-07T02:23:33.516Z,16.55
2018-01-07T02:26:04.381Z,18.20
2018-01-07T02:28:33.984Z,30.95
2018-01-07T02:31:04.047Z,21.55
2018-01-07T02:33:34.370Z,25.20
2018-01-07T02:36:04.219Z,19.17
2018-01-07T02:38:35.525Z,19.70
2018-01-07T02:41:06.064Z,23.33
2018-01-07T02:43:36.925Z,24.17
2018-01-07T02:46:06.822Z,42.25
2018-01-07T02:48:37.488Z,56.30
2018-01-07T02:51:07.476Z,57.03
2018-01-07T02:53:37.729Z,82.95
2018-01-07T02:56:07.746Z,85.90
2018-01-07T02:58:37.579Z,63.45
2018-01-07T03:01:08.683Z,45.95
2018-01-07T03:03:40.187Z,35.92
2018-01-07T03:06:10.580Z,35.28
2018-01-07T03:08:40.908Z,33.92
2018-01-07T03:11:17.183Z,33.33
2018-01-07T03:13:47.709Z,32.55
2018-01-07T03:16:18.678Z,32.72
2018-01-07T03:18:49.036Z,86.63
2018-01-07T03:21:19.988Z,67.90
2018-01-07T03:23:50.760Z,49.95
2018-01-07T03:26:20.367Z,37.15
2018-01-07T03:28:50.342Z,42.38
2018-01-07T03:31:20.074Z,45.80
2018-01-07T03:33:50.185Z,32.75
2018-01-07T03:36:22.259Z,30.15
2018-01-07T03:38:53.321Z,33.15
2018-01-07T03:41:23.957Z,31.77
2018-01-07T03:43:53.904Z,31.33
2018-01-07T03:46:24.489Z,28.70
2018-01-07T03:48:54.253Z,32.47
2018-01-07T03:51:23.933Z,34.67
2018-01-07T03:53:54.838Z,27.08
2018-01-07T03:56:25.656Z,34.17
2018-01-07T03:58:55.736Z,41.25
2018-01-07T04:01:27.125Z,72.75
2018-01-07T04:03:57.817Z,90.10
2018-01-07T04:06:28.545Z,64.93
2018-01-07T04:08:58.299Z,87.80
2018-01-07T04:11:28.335Z,53.13
2018-01-07T04:13:57.948Z,58.15
2018-01-07T04:16:27.984Z,44.60
2018-01-07T04:18:58.528Z,31.48
2018-01-07T04:21:28.491Z,33.38
2018-01-07T04:23:59.265Z,30.50
2018-01-07T04:26:29.470Z,63.83
2018-01-07T04:28:59.429Z,79.10
2018-01-07T04:31:29.032Z,50.25
2018-01-07T04:34:00.149Z,49.15
2018-01-07T04:36:29.844Z,42.55
2018-01-07T04:39:00.466Z,34.20
2018-01-07T04:41:30.097Z,27.27
2018-01-07T04:43:59.857Z,30.17
2018-01-07T04:46:29.616Z,32.72
2018-01-07T04:48:59.841Z,32.20
2018-01-07T04:51:29.386Z,47.15
2018-01-07T04:54:00.642Z,34.90
2018-01-07T04:56:30.328Z,30.73
2018-01-07T04:59:00.784Z,34.05
2018-01-07T05:01:31.368Z,34.85
2018-01-07T05:04:01.415Z,32.92
2018-01-07T05:06:31.496Z,53.97
2018-01-07T05:09:02.405Z,74.18
2018-01-07T05:11:33.188Z,35.00
2018-01-07T05:14:03.174Z,55.60
2018-01-07T05:16:33.589Z,52.10
2018-01-07T05:19:03.477Z,53.22
2018-01-07T05:21:34.505Z,49.83
2018-01-07T05:24:05.289Z,49.85
2018-01-07T05:26:35.671Z,48.15
2018-01-07T05:29:05.587Z,49.83
2018-01-07T05:31:36.299Z,59.20
2018-01-07T05:34:06.515Z,61.37
2018-01-07T05:36:36.418Z,45.30
2018-01-07T05:39:06.361Z,64.25
2018-01-07T05:41:36.531Z,76.28
2018-01-07T05:44:07.152Z,54.65
2018-01-07T05:46:36.528Z,54.63
2018-01-07T05:49:06.833Z,62.15
2018-01-07T05:51:36.036Z,65.28
2018-01-07T05:54:05.969Z,74.30
2018-01-07T05:56:35.630Z,64.55
2018-01-07T05:59:06.126Z,119.35
2018-01-07T06:01:37.782Z,106.93
2018-01-07T06:04:07.385Z,102.45
2018-01-07T06:06:37.132Z,101.40
2018-01-07T06:09:07.679Z,117.97
2018-01-07T06:11:37.716Z,133.60
2018-01-07T06:14:07.394Z,115.55
2018-01-07T06:16:37.179Z,131.52
2018-01-07T06:19:07.343Z,114.60
2018-01-07T06:21:38.055Z,102.50
2018-01-07T06:24:08.679Z,97.65
2018-01-07T06:26:38.367Z,85.70
2018-01-07T06:29:08.508Z,72.55
2018-01-07T06:31:38.676Z,63.50
2018-01-07T06:34:08.806Z,62.58
2018-01-07T06:36:38.886Z,76.35
2018-01-07T06:39:11.254Z,82.30
2018-01-07T06:41:41.644Z,69.15
2018-01-07T06:44:11.882Z,60.70
2018-01-07T06:46:41.553Z,61.10
2018-01-07T06:49:12.661Z,79.05
2018-01-07T06:51:42.609Z,80.35
2018-01-07T06:54:16.786Z,76.30
2018-01-07T06:56:47.144Z,70.97
2018-01-07T06:59:18.529Z,65.30
2018-01-07T07:01:48.504Z,56.37
2018-01-07T07:04:18.498Z,46.55
2018-01-07T07:06:48.444Z,52.80
2018-01-07T07:09:19.164Z,49.75
2018-01-07T07:11:49.230Z,45.12
2018-01-07T07:14:19.325Z,46.47
2018-01-07T07:16:49.287Z,54.97
2018-01-07T07:19:19.586Z,47.53
2018-01-07T07:21:49.402Z,40.22
2018-01-07T07:24:19.362Z,43.47
2018-01-07T07:26:48.921Z,47.15
2018-01-07T07:29:19.711Z,45.03
2018-01-07T07:31:50.240Z,47.78
2018-01-07T07:34:20.057Z,42.60
2018-01-07T07:36:51.079Z,39.40
2018-01-07T07:39:23.085Z,35.95
2018-01-07T07:41:53.174Z,40.25
2018-01-07T07:44:23.106Z,37.97
2018-01-07T07:46:53.824Z,36.65
2018-01-07T07:49:24.501Z,41.75
2018-01-07T07:51:54.514Z,45.53
2018-01-07T07:54:24.055Z,38.25
2018-01-07T07:56:54.445Z,39.92
2018-01-07T07:59:24.911Z,37.45
2018-01-07T08:01:55.410Z,38.58
2018-01-07T08:04:25.624Z,39.92
2018-01-07T08:06:55.438Z,34.75
2018-01-07T08:09:27.500Z,37.72
2018-01-07T08:11:57.398Z,38.33
2018-01-07T08:14:27.246Z,43.70
2018-01-07T08:16:58.366Z,36.05
2018-01-07T08:19:28.355Z,45.67
2018-01-07T08:21:58.495Z,34.75
2018-01-07T08:24:29.261Z,38.63
2018-01-07T08:26:59.312Z,36.83
2018-01-07T08:29:29.946Z,42.83
2018-01-07T08:32:00.561Z,46.85
2018-01-07T08:34:30.889Z,37.35
2018-01-07T08:37:02.705Z,34.15
2018-01-07T08:39:33.008Z,35.15
2018-01-07T08:42:03.226Z,39.15
2018-01-07T08:44:33.105Z,37.05
2018-01-07T08:47:02.721Z,38.22
2018-01-07T08:49:33.096Z,39.45
2018-01-07T08:52:04.641Z,39.00
2018-01-07T08:54:35.337Z,37.92
2018-01-07T08:57:05.704Z,39.60
2018-01-07T08:59:35.568Z,38.45
2018-01-07T09:02:06.794Z,44.45
2018-01-07T09:04:37.919Z,35.17
2018-01-07T09:07:08.832Z,35.30
2018-01-07T09:09:38.434Z,32.20
2018-01-07T09:12:07.840Z,27.95
2018-01-07T09:14:38.299Z,40.67
2018-01-07T09:17:07.914Z,27.17
2018-01-07T09:19:38.898Z,32.58
2018-01-07T09:22:08.548Z,34.00
2018-01-07T09:24:39.800Z,36.20
2018-01-07T09:27:09.898Z,31.17
2018-01-07T09:29:39.847Z,31.52
2018-01-07T09:32:10.525Z,32.75
2018-01-07T09:34:40.354Z,31.00
2018-01-07T09:37:10.269Z,33.05
2018-01-07T09:39:39.946Z,28.87
2018-01-07T09:42:10.113Z,25.65
2018-01-07T09:44:40.221Z,19.05
2018-01-07T09:47:10.663Z,20.12
2018-01-07T09:49:40.894Z,20.45
2018-01-07T09:52:13.083Z,16.40
2018-01-07T09:54:42.644Z,16.65
2018-01-07T09:57:13.209Z,29.20
2018-01-07T09:59:43.495Z,23.83
2018-01-07T10:02:13.260Z,48.38
2018-01-07T10:04:42.848Z,40.12
2018-01-07T10:07:12.844Z,35.47
2018-01-07T10:09:45.296Z,64.03
2018-01-07T10:12:16.234Z,76.40
2018-01-07T10:14:48.274Z,41.42
2018-01-07T10:17:17.947Z,30.45
2018-01-07T10:19:47.631Z,44.00
2018-01-07T10:22:17.157Z,32.83
2018-01-07T10:24:46.792Z,32.72
2018-01-07T10:27:16.862Z,32.72
2018-01-07T10:29:47.800Z,29.65
2018-01-07T10:32:18.952Z,36.42
2018-01-07T10:34:49.918Z,28.55
2018-01-07T10:37:20.592Z,32.15
2018-01-07T10:39:50.242Z,27.30
2018-01-07T10:42:21.367Z,26.87
2018-01-07T10:44:51.960Z,23.80
2018-01-07T10:47:23.014Z,26.05
2018-01-07T10:49:53.295Z,25.37
2018-01-07T10:52:23.236Z,23.75
2018-01-07T10:54:52.952Z,29.55
2018-01-07T10:57:23.479Z,22.77
2018-01-07T10:59:54.043Z,24.48
2018-01-07T11:02:29.937Z,23.40
2018-01-07T11:05:00.608Z,22.42
2018-01-07T11:07:30.199Z,23.30
2018-01-07T11:10:00.053Z,20.15
2018-01-07T11:12:30.234Z,19.80
2018-01-07T11:15:00.019Z,18.00
2018-01-07T11:17:29.922Z,18.73
2018-01-07T11:20:00.319Z,18.98
2018-01-07T11:22:30.418Z,25.17
2018-01-07T11:25:01.265Z,23.65
2018-01-07T11:27:31.499Z,19.17
2018-01-07T11:30:02.016Z,30.23
2018-01-07T11:32:32.149Z,22.40
2018-01-07T11:35:03.285Z,22.80
2018-01-07T11:37:32.803Z,24.10
2018-01-07T11:40:02.646Z,30.08
2018-01-07T11:42:32.343Z,24.48
2018-01-07T11:45:02.788Z,22.77
2018-01-07T11:47:32.294Z,17.45
2018-01-07T11:50:02.108Z,19.42
2018-01-07T11:52:31.880Z,19.77
2018-01-07T11:55:02.703Z,20.67
2018-01-07T11:57:32.485Z,18.15
2018-01-07T12:00:02.195Z,17.80
2018-01-07T12:02:32.824Z,18.55
2018-01-07T12:05:02.661Z,17.50
2018-01-07T12:07:34.047Z,19.90
2018-01-07T12:10:03.855Z,19.60
2018-01-07T12:12:33.963Z,19.70
2018-01-07T12:15:04.562Z,18.25
2018-01-07T12:17:34.318Z,20.50
2018-01-07T12:20:04.102Z,26.83
2018-01-07T12:22:34.132Z,26.80
2018-01-07T12:25:03.733Z,27.98
2018-01-07T12:27:33.228Z,23.12
2018-01-07T12:30:02.544Z,22.87
2018-01-07T12:32:32.414Z,24.55
2018-01-07T12:35:02.480Z,28.58
2018-01-07T12:37:31.813Z,29.48
2018-01-07T12:40:02.187Z,31.40
2018-01-07T12:42:32.300Z,32.25
2018-01-07T12:45:02.020Z,30.27
2018-01-07T12:47:31.969Z,23.98
2018-01-07T12:50:02.295Z,22.13
2018-01-07T12:52:31.784Z,21.37
2018-01-07T12:55:01.445Z,23.65
2018-01-07T12:57:30.967Z,19.60
2018-01-07T13:00:00.739Z,27.35
2018-01-07T13:02:31.035Z,20.45
2018-01-07T13:05:01.352Z,23.50
2018-01-07T13:07:31.978Z,18.83
2018-01-07T13:10:04.335Z,19.50
2018-01-07T13:12:33.746Z,15.52
2018-01-07T13:15:03.606Z,18.15
2018-01-07T13:17:33.159Z,12.07
2018-01-07T13:20:03.287Z,12.45
2018-01-07T13:22:33.158Z,11.95
2018-01-07T13:25:02.947Z,17.98
2018-01-07T13:27:33.458Z,11.10
2018-01-07T13:30:03.592Z,27.20
2018-01-07T13:32:34.103Z,26.12
2018-01-07T13:35:03.961Z,25.12
2018-01-07T13:37:33.723Z,26.73
2018-01-07T13:40:03.334Z,33.22
2018-01-07T13:42:33.853Z,22.85
2018-01-07T13:45:03.722Z,22.95
2018-01-07T13:47:33.270Z,21.23
2018-01-07T13:50:02.872Z,15.30
2018-01-07T13:52:32.953Z,18.80
2018-01-07T13:55:03.619Z,19.02
2018-01-07T13:57:33.418Z,17.35
2018-01-07T14:00:03.281Z,19.87
2018-01-07T14:02:32.736Z,20.35
2018-01-07T14:05:03.303Z,18.45
2018-01-07T14:07:33.071Z,16.67
2018-01-07T14:10:02.975Z,18.85
2018-01-07T14:12:32.882Z,18.60
2018-01-07T14:15:02.950Z,16.20
2018-01-07T14:17:32.490Z,20.30
2018-01-07T14:20:02.824Z,19.73
2018-01-07T14:22:32.471Z,21.15
2018-01-07T14:25:02.284Z,23.25
2018-01-07T14:27:32.266Z,16.92
2018-01-07T14:30:02.016Z,15.45
2018-01-07T14:32:31.623Z,16.02
2018-01-07T14:35:01.950Z,12.23
2018-01-07T14:37:31.262Z,11.23
2018-01-07T14:40:02.670Z,13.90
2018-01-07T14:42:32.646Z,15.35
2018-01-07T14:45:02.330Z,13.82
2018-01-07T14:47:32.935Z,14.87
2018-01-07T14:50:02.523Z,14.65
2018-01-07T14:52:32.380Z,15.55
2018-01-07T14:55:01.874Z,14.95
2018-01-07T14:57:31.958Z,15.90
2018-01-07T15:00:02.259Z,12.30
2018-01-07T15:02:32.197Z,12.73
2018-01-07T15:05:02.125Z,13.20
2018-01-07T15:07:31.685Z,13.60
2018-01-07T15:10:01.828Z,16.23
2018-01-07T15:12:32.338Z,15.43
2018-01-07T15:15:01.987Z,16.95
2018-01-07T15:17:31.624Z,14.63
2018-01-07T15:20:01.490Z,13.00
2018-01-07T15:22:34.606Z,11.45
2018-01-07T15:25:04.662Z,14.73
2018-01-07T15:27:34.809Z,14.20
2018-01-07T15:30:05.180Z,16.50
2018-01-07T15:32:36.282Z,13.98
2018-01-07T15:35:06.425Z,20.15
2018-01-07T15:37:36.016Z,29.33
2018-01-07T15:40:05.221Z,24.67
2018-01-07T15:42:34.761Z,23.02
2018-01-07T15:45:05.176Z,22.80
2018-01-07T15:47:35.612Z,29.23
2018-01-07T15:50:05.922Z,25.40
2018-01-07T15:52:36.238Z,26.00
2018-01-07T15:55:05.846Z,28.80
2018-01-07T15:57:37.117Z,27.52
2018-01-07T16:00:07.059Z,27.73
2018-01-07T16:02:37.078Z,26.12
2018-01-07T16:05:06.941Z,30.62
2018-01-07T16:07:37.213Z,22.55
2018-01-07T16:10:07.051Z,25.92
2018-01-07T16:12:37.234Z,27.10
2018-01-07T16:15:06.727Z,28.38
2018-01-07T16:17:37.616Z,31.87
2018-01-07T16:20:07.848Z,30.75
2018-01-07T16:22:38.349Z,27.60
2018-01-07T16:25:08.253Z,22.55
2018-01-07T16:27:39.772Z,26.70
2018-01-07T16:30:10.132Z,27.20
2018-01-07T16:32:39.832Z,31.55
2018-01-07T16:35:09.388Z,28.38
2018-01-07T16:37:39.813Z,26.12
2018-01-07T16:40:10.572Z,24.85
2018-01-07T16:42:40.584Z,22.85
2018-01-07T16:45:10.188Z,27.37
2018-01-07T16:47:42.265Z,18.75
2018-01-07T16:50:11.714Z,18.50
2018-01-07T16:52:42.173Z,18.52
2018-01-07T16:55:11.802Z,21.25
2018-01-07T16:57:41.738Z,17.90
2018-01-07T17:00:11.726Z,12.30
2018-01-07T17:02:42.242Z,12.20
2018-01-07T17:05:12.611Z,13.65
2018-01-07T17:07:42.639Z,14.68
2018-01-07T17:10:12.769Z,13.48
2018-01-07T17:12:44.142Z,11.80
2018-01-07T17:15:13.790Z,13.50
2018-01-07T17:17:43.784Z,11.20
2018-01-07T17:20:15.031Z,10.10
2018-01-07T17:22:45.679Z,11.20
2018-01-07T17:25:15.917Z,10.52
2018-01-07T17:27:46.363Z,14.00
2018-01-07T17:30:16.838Z,10.10
2018-01-07T17:32:46.422Z,12.13
2018-01-07T17:35:17.554Z,10.85
2018-01-07T17:37:48.975Z,11.02
2018-01-07T17:40:18.694Z,9.48
2018-01-07T17:42:49.532Z,8.93
2018-01-07T17:45:19.274Z,8.98
2018-01-07T17:47:49.095Z,8.88
2018-01-07T17:50:18.946Z,9.82
2018-01-07T17:52:48.728Z,8.30
2018-01-07T17:55:19.437Z,8.15
2018-01-07T17:57:49.333Z,8.38
2018-01-07T18:00:20.146Z,9.52
2018-01-07T18:02:50.056Z,14.27
2018-01-07T18:05:21.519Z,20.12
2018-01-07T18:07:52.642Z,21.40
2018-01-07T18:10:22.809Z,52.72
2018-01-07T18:12:54.646Z,9.95
2018-01-07T18:15:26.940Z,7.72
2018-01-07T18:17:59.007Z,7.20
2018-01-07T18:20:29.408Z,8.73
2018-01-07T18:22:59.428Z,9.05
2018-01-07T18:25:30.495Z,8.30
2018-01-07T18:28:00.383Z,8.40
2018-01-07T18:30:31.247Z,6.05
2018-01-07T18:33:01.262Z,10.82
2018-01-07T18:35:32.378Z,6.50
2018-01-07T18:38:02.545Z,10.60
2018-01-07T18:40:32.377Z,7.93
2018-01-07T18:43:02.790Z,8.10
2018-01-07T18:45:32.944Z,7.10
2018-01-07T18:48:03.645Z,9.95
2018-01-07T18:50:33.711Z,8.93
2018-01-07T18:53:05.003Z,8.80
2018-01-07T18:55:35.600Z,6.75
2018-01-07T18:58:06.220Z,6.28
2018-01-07T19:00:35.946Z,5.93
2018-01-07T19:03:05.967Z,9.45
2018-01-07T19:05:37.100Z,7.18
2018-01-07T19:08:06.845Z,8.77
2018-01-07T19:10:36.929Z,8.88
2018-01-07T19:13:07.600Z,7.30
2018-01-07T19:15:37.386Z,8.57
2018-01-07T19:18:07.261Z,4.90
2018-01-07T19:20:37.243Z,4.82
2018-01-07T19:23:07.279Z,5.57
2018-01-07T19:25:37.004Z,6.80
2018-01-07T19:28:07.384Z,5.43
2018-01-07T19:30:37.165Z,7.78
2018-01-07T19:33:07.023Z,6.45
2018-01-07T19:35:36.976Z,6.65
2018-01-07T19:38:06.511Z,9.95
2018-01-07T19:40:38.261Z,8.02
2018-01-07T19:43:09.126Z,6.05
2018-01-07T19:45:39.706Z,4.82
2018-01-07T19:48:10.423Z,5.07
2018-01-07T19:50:40.488Z,4.97
2018-01-07T19:53:11.148Z,5.93
2018-01-07T19:55:41.179Z,5.03
2018-01-07T19:58:13.911Z,4.85
2018-01-07T20:00:43.949Z,5.87
2018-01-07T20:03:13.761Z,5.70
2018-01-07T20:05:44.419Z,5.18
2018-01-07T20:08:14.862Z,4.72
2018-01-07T20:10:44.960Z,6.18
2018-01-07T20:13:14.009Z,11.12
2018-01-07T20:15:43.638Z,6.25
2018-01-07T20:18:14.656Z,7.65
2018-01-07T20:20:44.291Z,4.85
2018-01-07T20:23:14.993Z,5.43
2018-01-07T20:25:44.441Z,10.23
2018-01-07T20:28:14.981Z,5.67
2018-01-07T20:30:46.334Z,6.23
2018-01-07T20:33:16.701Z,5.60
2018-01-07T20:35:46.489Z,5.13
2018-01-07T20:38:16.331Z,4.33
2018-01-07T20:40:46.879Z,5.03
2018-01-07T20:43:16.573Z,10.83
2018-01-07T20:45:46.174Z,4.43
2018-01-07T20:48:17.138Z,4.13
2018-01-07T20:50:46.720Z,4.37
2018-01-07T20:53:16.753Z,3.50
2018-01-07T20:55:46.563Z,5.12
2018-01-07T20:58:16.629Z,5.35
2018-01-07T21:00:48.025Z,6.85
2018-01-07T21:03:18.305Z,4.60
2018-01-07T21:05:49.646Z,5.53
2018-01-07T21:08:21.067Z,5.15
2018-01-07T21:10:51.129Z,5.68
2018-01-07T21:13:23.375Z,5.72
2018-01-07T21:15:53.300Z,9.68
2018-01-07T21:18:23.807Z,6.28
2018-01-07T21:20:53.614Z,4.70
2018-01-07T21:23:23.054Z,5.50
2018-01-07T21:25:53.255Z,4.68
2018-01-07T21:28:23.108Z,5.78
2018-01-07T21:30:52.839Z,7.28
2018-01-07T21:33:23.151Z,6.07
2018-01-07T21:35:54.470Z,5.55
2018-01-07T21:38:24.750Z,8.07
2018-01-07T21:40:55.299Z,6.00
2018-01-07T21:43:25.671Z,7.73
2018-01-07T21:45:56.674Z,6.07
2018-01-07T21:48:26.185Z,6.10
2018-01-07T21:50:55.988Z,4.95
2018-01-07T21:53:26.413Z,5.55
2018-01-07T21:55:55.835Z,6.00
2018-01-07T21:58:26.193Z,4.57
2018-01-07T22:01:09.092Z,6.47
2018-01-07T22:03:50.469Z,6.07
2018-01-07T22:06:31.879Z,8.50
2018-01-07T22:09:01.903Z,7.13
2018-01-07T22:11:32.376Z,7.35
2018-01-07T22:14:02.991Z,7.00
2018-01-07T22:16:34.899Z,7.95
2018-01-07T22:19:05.363Z,8.52
2018-01-07T22:21:35.729Z,7.90
2018-01-07T22:24:06.045Z,6.18
2018-01-07T22:26:36.280Z,5.82
2018-01-07T22:29:06.004Z,6.62
2018-01-07T22:31:35.738Z,6.60
2018-01-07T22:34:05.126Z,9.48
2018-01-07T22:36:34.977Z,11.53
2018-01-07T22:39:05.305Z,10.68
2018-01-07T22:41:34.799Z,16.83
2018-01-07T22:44:04.947Z,9.63
2018-01-07T22:46:35.194Z,29.80
2018-01-07T22:49:05.471Z,15.67
2018-01-07T22:51:35.347Z,15.60
2018-01-07T22:54:05.034Z,9.50
2018-01-07T22:56:34.747Z,5.85
2018-01-07T22:59:06.254Z,6.90
2018-01-07T23:01:36.619Z,11.83
2018-01-07T23:04:06.490Z,6.37
2018-01-07T23:06:36.437Z,7.13
2018-01-07T23:09:06.871Z,4.20
2018-01-07T23:11:36.898Z,5.47
2018-01-07T23:14:07.399Z,5.03
2018-01-07T23:16:38.353Z,4.80
2018-01-07T23:19:08.405Z,4.83
2018-01-07T23:21:39.528Z,4.82
2018-01-07T23:24:09.435Z,4.03
2018-01-07T23:26:39.030Z,4.30
2018-01-07T23:29:08.558Z,9.50
2018-01-07T23:31:38.789Z,16.90
2018-01-07T23:34:09.377Z,12.37
2018-01-07T23:36:39.795Z,8.53
2018-01-07T23:39:09.481Z,6.82
2018-01-07T23:41:39.312Z,6.93
2018-01-07T23:44:09.946Z,12.70
2018-01-07T23:46:39.497Z,9.97
2018-01-07T23:49:16.723Z,8.90
2018-01-07T23:51:47.948Z,6.60
2018-01-07T23:54:17.365Z,4.27
2018-01-07T23:56:46.620Z,6.10
2018-01-07T23:59:15.877Z,7.77
